Huvudsida
METAR-TAF:

METAR-TAF

Flygplatser :

Starptautiskā lidosta "Liepāja"

Liepāja, Lettland

latitud: 56-31N, longitud: 021-05E, höjd: 5 m

Aktuellt väderrapport

Denna rapport gjordes för 15 minuter sedan, klockan 22:50 UTC
Vind 6 kt från syd
Temperatur -6°C
Fuktighet 86%
Tryck 1015 hPa
Sikt 10 km eller mer

METAR: EVLA 232250Z AUTO 18006KT 9999 NCD M06/M08 Q1015

Tid: 01:05 (23:05 UTC)

Väderprognos

Denna rapport gjordes för 3 timmar och 2 minuter sedan, klockan 20:03 UTC
Prognos gäller från 23 kl. 21 UTC till 24 kl. 21 UTC
Vind 6 kt från syd
Sikt: 8000 m
Brutna moln på en höjd av 3000 ft
Sannolikhet 40% :
Temporärt
från 23 kl. 21 UTC till 24 kl. 09 UTC
Sikt: 2000 m
fuktdis

TAF: EVLA 232003Z 2321/2421 17006KT 8000 BKN030 PROB40 TEMPO 2321/2409 2000 BR

Aktuella väderrapporter och prognoser från 4000 flygplatser (METAR- och TAF-rapporter).

De tillgängliga stationerna syns som gula och röda prickar på kartan.

För musen över prickarna för att se namnen på stationerna.

Klicka sedan för att få väderrapporter och prognoser.

För att ändra kartan: Klicka på de gröna knapparna med ett svart kors på för att zooma in; den gröna knappen med ett streck på för att zooma ut; eller på de gröna pilarna för angränsande kartor.


METAR-TAF: